Terminal Aerodrome Forecast
Issued by NWS

Home | Current Version | Previous Version | Text Only | Print | Product List | Glossary On
Versions: 1 2 3 4 5 6 7 8 9 10 11 12 13 14
303
FTUS45 KGGW 021408 AAA
TAFSDY
TAF AMD
KSDY 021408Z 0214/0312 29018KT P6SM BKN130
     FM021800 33013KT P6SM SCT250
     FM030100 01008KT P6SM FEW250
      AMD LTD TO CLD VIS AND WIND=

USA.gov is the U.S. government's official web portal to all federal, state and local government web resources and services.